createdAt,value
2022-08-12T00:01:12.649Z,6.13
2022-08-12T00:03:58.590Z,6.00
2022-08-12T00:06:46.518Z,6.00
2022-08-12T00:09:32.344Z,6.65
2022-08-12T00:12:18.421Z,5.70
2022-08-12T00:15:05.649Z,5.30
2022-08-12T00:17:51.785Z,6.10
2022-08-12T00:20:37.478Z,5.32
2022-08-12T00:23:24.712Z,5.65
2022-08-12T00:26:22.993Z,5.53
2022-08-12T00:29:11.652Z,5.60
2022-08-12T00:32:00.425Z,5.03
2022-08-12T00:34:46.580Z,5.00
2022-08-12T00:37:35.543Z,5.57
2022-08-12T00:40:22.438Z,5.85
2022-08-12T00:42:52.176Z,5.18
2022-08-12T00:45:20.901Z,5.70
2022-08-12T00:47:54.392Z,5.57
2022-08-12T00:50:24.117Z,5.30
2022-08-12T00:52:53.905Z,5.22
2022-08-12T00:55:22.324Z,5.60
2022-08-12T00:57:52.094Z,5.18
2022-08-12T01:00:23.300Z,4.57
2022-08-12T01:02:55.748Z,4.47
2022-08-12T01:05:43.191Z,5.60
2022-08-12T01:08:29.755Z,5.20
2022-08-12T01:11:16.769Z,5.63
2022-08-12T01:13:48.782Z,5.07
2022-08-12T01:16:22.986Z,5.25
2022-08-12T01:18:55.032Z,4.68
2022-08-12T01:21:45.201Z,4.82
2022-08-12T01:24:31.498Z,4.90
2022-08-12T01:27:03.414Z,4.88
2022-08-12T01:29:42.813Z,5.40
2022-08-12T01:32:14.506Z,5.15
2022-08-12T01:34:51.695Z,6.00
2022-08-12T01:37:23.456Z,5.45
2022-08-12T01:40:33.785Z,5.43
2022-08-12T01:42:47.832Z,5.28
2022-08-12T01:45:18.265Z,5.43
2022-08-12T01:48:05.960Z,5.15
2022-08-12T01:50:43.199Z,5.13
2022-08-12T01:53:13.697Z,5.13
2022-08-12T01:55:44.295Z,5.50
2022-08-12T01:58:32.030Z,4.65
2022-08-12T02:01:03.910Z,5.13
2022-08-12T02:04:20.874Z,5.50
2022-08-12T02:07:14.967Z,5.38
2022-08-12T02:10:50.003Z,5.28
2022-08-12T02:13:41.703Z,5.00
2022-08-12T02:16:22.846Z,5.93
2022-08-12T02:19:03.887Z,5.80
2022-08-12T02:21:59.955Z,5.57
2022-08-12T02:24:33.322Z,5.03
2022-08-12T02:27:02.282Z,5.22
2022-08-12T02:29:30.838Z,5.63
2022-08-12T02:32:07.568Z,5.13
2022-08-12T02:34:36.083Z,5.28
2022-08-12T02:37:05.329Z,5.13
2022-08-12T02:39:34.799Z,5.72
2022-08-12T02:42:06.807Z,4.75
2022-08-12T02:44:40.446Z,5.45
2022-08-12T02:47:58.340Z,5.53
2022-08-12T02:50:06.428Z,5.78
2022-08-12T02:52:35.857Z,5.22
2022-08-12T02:55:28.973Z,5.03
2022-08-12T02:58:06.868Z,5.72
2022-08-12T03:00:38.840Z,5.10
2022-08-12T03:03:11.008Z,5.05
2022-08-12T03:05:47.329Z,4.85
2022-08-12T03:08:32.003Z,4.60
2022-08-12T03:11:06.162Z,4.88
2022-08-12T03:13:44.082Z,5.90
2022-08-12T03:18:45.972Z,5.55
2022-08-12T03:21:52.972Z,4.75
2022-08-12T03:24:09.407Z,4.75
2022-08-12T03:26:39.308Z,5.53
2022-08-12T03:29:08.536Z,5.90
2022-08-12T03:31:36.683Z,6.00
2022-08-12T03:34:08.939Z,5.45
2022-08-12T03:39:35.926Z,5.22
2022-08-12T03:42:22.276Z,4.93
2022-08-12T03:45:16.081Z,5.20
2022-08-12T03:48:10.372Z,4.85
2022-08-12T03:51:00.864Z,4.90
2022-08-12T03:53:48.751Z,4.93
2022-08-12T03:56:35.109Z,5.00
2022-08-12T03:59:23.036Z,5.18
2022-08-12T04:01:57.579Z,5.18
2022-08-12T04:04:29.611Z,5.60
2022-08-12T04:06:59.393Z,5.32
2022-08-12T04:09:27.934Z,5.25
2022-08-12T04:12:13.286Z,5.20
2022-08-12T04:14:42.297Z,5.72
2022-08-12T04:17:12.074Z,5.40
2022-08-12T04:19:41.072Z,5.28
2022-08-12T04:22:12.606Z,6.15
2022-08-12T04:24:43.097Z,4.78
2022-08-12T04:27:17.051Z,5.75
2022-08-12T04:30:17.043Z,5.25
2022-08-12T04:32:36.875Z,6.22
2022-08-12T04:35:08.685Z,5.22
2022-08-12T04:37:58.363Z,5.55
2022-08-12T04:40:30.530Z,4.57
2022-08-12T04:43:01.346Z,5.22
2022-08-12T04:45:30.711Z,5.45
2022-08-12T04:47:58.878Z,5.28
2022-08-12T04:50:34.352Z,4.95
2022-08-12T04:53:08.559Z,5.28
2022-08-12T04:55:38.723Z,5.13
2022-08-12T04:58:07.455Z,5.07
2022-08-12T05:00:37.930Z,5.32
2022-08-12T05:03:06.898Z,5.18
2022-08-12T05:05:36.990Z,5.22
2022-08-12T05:08:12.930Z,5.70
2022-08-12T05:10:41.305Z,5.35
2022-08-12T05:13:12.275Z,5.22
2022-08-12T05:16:02.369Z,5.60
2022-08-12T05:18:30.043Z,5.45
2022-08-12T05:20:59.885Z,5.82
2022-08-12T05:23:32.108Z,5.63
2022-08-12T05:26:01.250Z,5.50
2022-08-12T05:28:30.595Z,5.75
2022-08-12T05:31:02.101Z,5.30
2022-08-12T05:33:33.254Z,5.63
2022-08-12T05:36:01.440Z,5.38
2022-08-12T05:38:48.565Z,6.25
2022-08-12T05:41:20.582Z,5.35
2022-08-12T05:43:51.210Z,5.63
2022-08-12T05:46:20.399Z,5.50
2022-08-12T05:48:49.474Z,5.15
2022-08-12T05:51:18.961Z,5.78
2022-08-12T05:53:48.564Z,5.60
2022-08-12T05:56:21.343Z,5.82
2022-08-12T05:58:52.715Z,6.50
2022-08-12T06:02:08.853Z,5.97
2022-08-12T06:04:10.089Z,5.05
2022-08-12T06:06:41.440Z,5.50
2022-08-12T06:09:11.639Z,5.10
2022-08-12T06:12:04.185Z,4.97
2022-08-12T06:14:35.182Z,5.35
2022-08-12T06:17:03.878Z,4.85
2022-08-12T06:20:25.755Z,4.82
2022-08-12T06:22:20.689Z,4.70
2022-08-12T06:24:52.985Z,4.53
2022-08-12T06:27:21.814Z,5.13
2022-08-12T06:30:09.805Z,4.72
2022-08-12T06:32:51.904Z,5.05
2022-08-12T06:35:47.976Z,5.00
2022-08-12T06:38:18.099Z,4.07
2022-08-12T06:41:07.142Z,4.70
2022-08-12T06:44:04.982Z,4.45
2022-08-12T06:46:24.538Z,4.30
2022-08-12T06:48:56.467Z,4.95
2022-08-12T06:51:24.896Z,4.63
2022-08-12T06:53:53.698Z,4.88
2022-08-12T06:56:39.907Z,4.47
2022-08-12T06:59:14.756Z,4.50
2022-08-12T07:01:49.896Z,4.97
2022-08-12T07:07:09.753Z,4.53
2022-08-12T07:10:03.719Z,4.78
2022-08-12T07:12:28.925Z,4.60
2022-08-12T07:14:58.715Z,4.80
2022-08-12T07:17:36.544Z,5.10
2022-08-12T07:20:10.070Z,4.53
2022-08-12T07:22:42.098Z,4.70
2022-08-12T07:25:28.666Z,4.97
2022-08-12T07:28:03.721Z,4.63
2022-08-12T07:30:44.991Z,5.07
2022-08-12T07:33:14.531Z,4.72
2022-08-12T07:35:45.561Z,5.50
2022-08-12T07:38:29.206Z,5.18
2022-08-12T07:41:03.574Z,4.82
2022-08-12T07:43:35.547Z,5.40
2022-08-12T07:46:06.668Z,5.55
2022-08-12T07:48:40.826Z,6.10
2022-08-12T07:51:10.028Z,4.93
2022-08-12T07:53:53.863Z,5.55
2022-08-12T07:56:28.636Z,5.25
2022-08-12T07:58:59.358Z,5.43
2022-08-12T08:04:18.694Z,6.32
2022-08-12T08:09:18.525Z,6.28
2022-08-12T08:12:04.456Z,5.72
2022-08-12T08:14:34.282Z,5.75
2022-08-12T08:17:06.662Z,5.55
2022-08-12T08:20:02.024Z,5.63
2022-08-12T08:22:40.438Z,5.78
2022-08-12T08:25:34.274Z,5.72
2022-08-12T08:28:01.594Z,6.38
2022-08-12T08:30:33.900Z,6.00
2022-08-12T08:33:02.168Z,5.78
2022-08-12T08:35:47.667Z,6.30
2022-08-12T08:38:25.513Z,5.45
2022-08-12T08:42:14.086Z,6.15
2022-08-12T08:44:06.729Z,6.22
2022-08-12T08:46:38.013Z,5.63
2022-08-12T08:49:06.549Z,5.75
2022-08-12T08:51:35.457Z,5.97
2022-08-12T08:54:03.796Z,6.13
2022-08-12T08:56:31.984Z,5.88
2022-08-12T08:59:00.758Z,5.70
2022-08-12T09:05:13.105Z,5.55
2022-08-12T09:10:02.883Z,5.25
2022-08-12T09:12:55.121Z,5.38
2022-08-12T09:15:35.767Z,5.40
2022-08-12T09:18:08.680Z,5.32
2022-08-12T09:20:40.484Z,5.88
2022-08-12T09:24:01.159Z,5.38
2022-08-12T09:26:04.506Z,5.30
2022-08-12T09:28:34.470Z,5.85
2022-08-12T09:32:07.527Z,5.68
2022-08-12T09:34:27.766Z,6.28
2022-08-12T09:36:58.230Z,5.65
2022-08-12T09:40:01.346Z,6.63
2022-08-12T09:42:42.923Z,5.93
2022-08-12T09:46:05.483Z,5.68
2022-08-12T09:48:19.761Z,6.53
2022-08-12T09:50:55.543Z,5.47
2022-08-12T09:53:29.338Z,6.03
2022-08-12T09:56:59.023Z,6.20
2022-08-12T09:59:00.420Z,5.82
2022-08-12T10:01:35.592Z,6.30
2022-08-12T10:04:19.766Z,5.55
2022-08-12T10:06:54.622Z,6.00
2022-08-12T10:09:28.470Z,6.80
2022-08-12T10:12:33.435Z,6.90
2022-08-12T10:15:02.643Z,7.35
2022-08-12T10:17:31.028Z,6.93
2022-08-12T10:19:59.834Z,6.78
2022-08-12T10:22:39.520Z,8.23
2022-08-12T10:26:34.968Z,7.45
2022-08-12T10:29:01.767Z,8.18
2022-08-12T10:32:19.810Z,8.52
2022-08-12T10:34:23.765Z,9.38
2022-08-12T10:36:58.810Z,9.95
2022-08-12T10:40:01.212Z,10.52
2022-08-12T10:43:00.689Z,12.57
2022-08-12T10:45:31.394Z,12.38
2022-08-12T10:48:07.454Z,14.90
2022-08-12T10:51:00.887Z,17.25
2022-08-12T10:53:44.087Z,14.35
2022-08-12T10:56:16.113Z,18.98
2022-08-12T10:58:47.841Z,18.02
2022-08-12T11:01:49.599Z,19.05
2022-08-12T11:04:34.228Z,18.35
2022-08-12T11:07:02.414Z,16.58
2022-08-12T11:09:54.401Z,19.70
2022-08-12T11:12:56.933Z,21.30
2022-08-12T11:15:20.869Z,22.13
2022-08-12T11:17:55.695Z,23.02
2022-08-12T11:20:30.694Z,23.30
2022-08-12T11:22:59.825Z,21.75
2022-08-12T11:25:55.679Z,20.10
2022-08-12T11:28:33.794Z,18.75
2022-08-12T11:31:05.597Z,17.83
2022-08-12T11:34:04.454Z,16.45
2022-08-12T11:36:22.549Z,15.88
2022-08-12T11:38:51.347Z,13.23
2022-08-12T11:41:30.975Z,12.57
2022-08-12T11:44:02.017Z,13.13
2022-08-12T11:46:51.215Z,11.05
2022-08-12T11:49:31.436Z,9.27
2022-08-12T11:52:17.592Z,7.85
2022-08-12T11:54:54.406Z,8.40
2022-08-12T11:58:47.758Z,6.70
2022-08-12T12:03:02.663Z,5.47
2022-08-12T12:05:41.886Z,5.18
2022-08-12T12:11:09.425Z,4.15
2022-08-12T12:14:08.149Z,2.78
2022-08-12T12:16:25.970Z,2.33
2022-08-12T12:18:55.489Z,2.70
2022-08-12T12:21:48.194Z,2.88
2022-08-12T12:24:12.090Z,2.80
2022-08-12T12:26:40.185Z,2.15
2022-08-12T12:30:19.025Z,2.78
2022-08-12T12:32:10.475Z,2.40
2022-08-12T12:35:14.657Z,2.15
2022-08-12T12:38:03.985Z,1.77
2022-08-12T12:40:17.840Z,2.20
2022-08-12T12:42:55.634Z,2.50
2022-08-12T12:45:27.195Z,2.17
2022-08-12T12:47:57.673Z,2.40
2022-08-12T12:50:35.957Z,1.80
2022-08-12T12:54:07.643Z,2.40
2022-08-12T12:56:04.229Z,2.33
2022-08-12T12:58:32.466Z,2.53
2022-08-12T13:01:04.981Z,2.45
2022-08-12T13:03:54.213Z,2.22
2022-08-12T13:06:29.971Z,2.13
2022-08-12T13:09:02.558Z,2.17
2022-08-12T13:11:39.032Z,2.13
2022-08-12T13:14:28.735Z,2.25
2022-08-12T13:17:02.709Z,1.88
2022-08-12T13:19:37.931Z,2.10
2022-08-12T13:22:21.290Z,2.30
2022-08-12T13:24:56.381Z,2.35
2022-08-12T13:27:34.877Z,2.03
2022-08-12T13:30:06.779Z,2.03
2022-08-12T13:32:39.535Z,2.65
2022-08-12T13:35:19.969Z,2.10
2022-08-12T13:38:02.710Z,2.20
2022-08-12T13:40:34.535Z,2.22
2022-08-12T13:43:07.057Z,2.70
2022-08-12T13:45:36.821Z,2.00
2022-08-12T13:48:07.323Z,2.30
2022-08-12T13:50:37.559Z,2.00
2022-08-12T13:53:26.107Z,2.13
2022-08-12T13:55:59.456Z,2.20
2022-08-12T13:58:34.756Z,1.98
2022-08-12T14:01:05.477Z,2.83
2022-08-12T14:06:20.487Z,2.15
2022-08-12T14:08:51.055Z,2.15
2022-08-12T14:11:25.251Z,2.20
2022-08-12T14:14:03.127Z,2.08
2022-08-12T14:16:49.411Z,2.40
2022-08-12T14:19:22.284Z,2.70
2022-08-12T14:22:01.531Z,2.20
2022-08-12T14:24:40.288Z,2.07
2022-08-12T14:27:11.276Z,1.85
2022-08-12T14:30:04.869Z,2.40
2022-08-12T14:32:36.534Z,2.15
2022-08-12T14:35:06.679Z,2.15
2022-08-12T14:37:55.497Z,2.20
2022-08-12T14:40:29.114Z,2.15
2022-08-12T14:45:44.857Z,2.20
2022-08-12T14:48:16.120Z,1.98
2022-08-12T14:52:07.881Z,2.20
2022-08-12T14:59:56.691Z,1.90
2022-08-12T15:02:21.237Z,2.08
2022-08-12T15:04:56.235Z,2.22
2022-08-12T15:07:34.151Z,2.05
2022-08-12T15:10:24.947Z,3.35
2022-08-12T15:13:07.361Z,2.30
2022-08-12T15:15:43.709Z,2.45
2022-08-12T15:18:15.817Z,2.30
2022-08-12T15:20:51.574Z,2.10
2022-08-12T15:23:22.311Z,2.10
2022-08-12T15:25:59.751Z,2.25
2022-08-12T15:28:32.382Z,2.13
2022-08-12T15:31:00.827Z,2.22
2022-08-12T15:33:45.227Z,2.10
2022-08-12T15:36:19.370Z,2.13
2022-08-12T15:38:53.225Z,2.28
2022-08-12T15:41:22.416Z,2.13
2022-08-12T15:44:36.563Z,2.08
2022-08-12T15:46:44.875Z,2.22
2022-08-12T15:49:16.773Z,2.10
2022-08-12T15:51:59.536Z,2.47
2022-08-12T15:54:34.619Z,2.08
2022-08-12T15:57:07.625Z,2.20
2022-08-12T16:00:02.365Z,2.42
2022-08-12T16:02:29.695Z,2.05
2022-08-12T16:04:58.620Z,1.80
2022-08-12T16:07:31.228Z,2.00
2022-08-12T16:10:05.954Z,2.10
2022-08-12T16:12:43.311Z,2.00
2022-08-12T16:15:26.201Z,2.00
2022-08-12T16:18:19.252Z,2.33
2022-08-12T16:20:46.700Z,2.65
2022-08-12T16:23:36.158Z,2.13
2022-08-12T16:26:14.870Z,2.03
2022-08-12T16:28:47.611Z,2.33
2022-08-12T16:31:22.923Z,1.90
2022-08-12T16:34:00.408Z,2.08
2022-08-12T16:36:30.491Z,1.88
2022-08-12T16:39:01.263Z,2.17
2022-08-12T16:41:38.201Z,2.00
2022-08-12T16:44:09.054Z,2.10
2022-08-12T16:46:39.196Z,1.98
2022-08-12T16:49:13.050Z,1.80
2022-08-12T16:51:46.023Z,2.00
2022-08-12T16:54:16.524Z,1.98
2022-08-12T16:56:55.622Z,2.60
2022-08-12T16:59:52.886Z,1.92
2022-08-12T17:02:31.678Z,1.88
2022-08-12T17:05:04.142Z,1.90
2022-08-12T17:07:36.621Z,2.33
2022-08-12T17:10:07.245Z,1.80
2022-08-12T17:12:37.349Z,1.92
2022-08-12T17:15:51.253Z,2.50
2022-08-12T17:18:39.409Z,2.05
2022-08-12T17:20:48.243Z,1.70
2022-08-12T17:23:19.701Z,2.25
2022-08-12T17:25:50.586Z,1.75
2022-08-12T17:28:19.837Z,1.90
2022-08-12T17:30:56.466Z,2.05
2022-08-12T17:33:33.684Z,1.98
2022-08-12T17:36:05.539Z,1.98
2022-08-12T17:38:35.062Z,2.08
2022-08-12T17:41:22.731Z,2.10
2022-08-12T17:43:58.568Z,2.22
2022-08-12T17:46:33.358Z,1.80
2022-08-12T17:49:06.814Z,2.00
2022-08-12T17:52:02.052Z,2.10
2022-08-12T17:54:32.710Z,2.45
2022-08-12T17:57:02.553Z,2.90
2022-08-12T17:59:48.189Z,2.30
2022-08-12T18:02:25.525Z,2.50
2022-08-12T18:05:09.701Z,4.93
2022-08-12T18:07:39.609Z,2.10
2022-08-12T18:10:08.920Z,2.30
2022-08-12T18:12:42.779Z,2.42
2022-08-12T18:15:26.099Z,2.30
2022-08-12T18:17:59.274Z,2.13
2022-08-12T18:20:35.242Z,2.20
2022-08-12T18:23:05.487Z,2.30
2022-08-12T18:26:14.396Z,2.55
2022-08-12T18:28:43.240Z,2.38
2022-08-12T18:31:13.630Z,2.17
2022-08-12T18:33:45.471Z,2.38
2022-08-12T18:36:22.373Z,2.30
2022-08-12T18:38:55.872Z,2.10
2022-08-12T18:41:34.494Z,2.80
2022-08-12T18:44:07.811Z,2.00
2022-08-12T18:46:54.035Z,2.00
2022-08-12T18:49:29.626Z,2.38
2022-08-12T18:52:04.887Z,2.00
2022-08-12T18:54:36.072Z,2.38
2022-08-12T18:57:16.616Z,2.78
2022-08-12T19:00:02.576Z,2.65
2022-08-12T19:02:39.887Z,2.00
2022-08-12T19:05:11.269Z,2.05
2022-08-12T19:07:49.673Z,2.47
2022-08-12T19:10:26.410Z,3.00
2022-08-12T19:13:21.093Z,2.45
2022-08-12T19:15:54.933Z,2.20
2022-08-12T19:18:29.274Z,2.60
2022-08-12T19:20:58.521Z,2.78
2022-08-12T19:23:34.859Z,2.40
2022-08-12T19:26:03.624Z,2.35
2022-08-12T19:28:34.423Z,2.78
2022-08-12T19:31:56.661Z,2.60
2022-08-12T19:37:20.305Z,2.40
2022-08-12T19:40:09.151Z,2.10
2022-08-12T19:42:44.834Z,2.42
2022-08-12T19:45:17.593Z,2.42
2022-08-12T19:47:46.868Z,2.60
2022-08-12T19:50:20.314Z,2.30
2022-08-12T19:52:53.074Z,2.00
2022-08-12T19:55:27.363Z,2.78
2022-08-12T19:58:03.016Z,2.67
2022-08-12T20:00:34.765Z,2.35
2022-08-12T20:03:05.477Z,2.20
2022-08-12T20:06:06.375Z,2.60
2022-08-12T20:08:33.127Z,2.53
2022-08-12T20:12:13.201Z,2.28
2022-08-12T20:14:00.341Z,2.50
2022-08-12T20:16:57.498Z,2.55
2022-08-12T20:19:52.202Z,2.42
2022-08-12T20:22:24.664Z,2.50
2022-08-12T20:25:01.103Z,2.72
2022-08-12T20:28:05.212Z,2.47
2022-08-12T20:30:52.468Z,2.78
2022-08-12T20:33:18.317Z,2.10
2022-08-12T20:36:13.784Z,2.55
2022-08-12T20:38:40.655Z,2.72
2022-08-12T20:41:16.690Z,2.70
2022-08-12T20:43:50.569Z,3.10
2022-08-12T20:46:20.852Z,2.83
2022-08-12T20:48:55.059Z,2.67
2022-08-12T20:51:28.148Z,2.65
2022-08-12T20:54:16.559Z,2.63
2022-08-12T20:56:47.214Z,3.03
2022-08-12T20:59:20.064Z,2.50
2022-08-12T21:01:53.731Z,2.30
2022-08-12T21:04:40.702Z,2.65
2022-08-12T21:07:16.018Z,2.80
2022-08-12T21:09:47.246Z,3.10
2022-08-12T21:12:27.718Z,2.78
2022-08-12T21:15:23.285Z,2.58
2022-08-12T21:20:49.632Z,3.00
2022-08-12T21:23:19.265Z,3.65
2022-08-12T21:25:51.312Z,2.92
2022-08-12T21:28:27.644Z,3.20
2022-08-12T21:32:36.135Z,3.40
2022-08-12T21:34:08.002Z,3.08
2022-08-12T21:36:39.920Z,3.78
2022-08-12T21:39:20.466Z,2.83
2022-08-12T21:41:52.145Z,3.27
2022-08-12T21:44:24.513Z,3.60
2022-08-12T21:47:21.558Z,3.20
2022-08-12T21:50:06.581Z,3.25
2022-08-12T21:52:37.164Z,2.97
2022-08-12T21:55:08.396Z,3.53
2022-08-12T21:57:50.588Z,3.38
2022-08-12T22:00:22.039Z,3.42
2022-08-12T22:03:09.002Z,3.42
2022-08-12T22:05:54.601Z,3.50
2022-08-12T22:08:26.186Z,3.47
2022-08-12T22:10:56.378Z,3.60
2022-08-12T22:14:02.103Z,3.13
2022-08-12T22:16:14.818Z,3.58
2022-08-12T22:18:50.642Z,3.40
2022-08-12T22:21:24.492Z,3.33
2022-08-12T22:24:05.133Z,3.45
2022-08-12T22:26:37.286Z,3.85
2022-08-12T22:31:55.472Z,2.92
2022-08-12T22:34:33.301Z,3.22
2022-08-12T22:37:02.639Z,3.47
2022-08-12T22:39:31.589Z,3.50
2022-08-12T22:42:19.764Z,3.40
2022-08-12T22:45:05.547Z,3.72
2022-08-12T22:47:54.136Z,3.10
2022-08-12T22:50:29.439Z,4.30
2022-08-12T22:53:16.114Z,3.55
2022-08-12T22:55:59.700Z,3.45
2022-08-12T22:58:40.847Z,3.80
2022-08-12T23:01:11.148Z,3.70
2022-08-12T23:03:48.490Z,3.50
2022-08-12T23:06:23.184Z,3.65
2022-08-12T23:08:55.117Z,3.80
2022-08-12T23:11:25.398Z,3.72
2022-08-12T23:14:04.250Z,3.20
2022-08-12T23:16:34.286Z,4.20
2022-08-12T23:19:09.635Z,4.10
2022-08-12T23:22:05.954Z,4.18
2022-08-12T23:24:55.905Z,3.92
2022-08-12T23:27:52.107Z,4.18
2022-08-12T23:30:32.394Z,4.13
2022-08-12T23:33:20.511Z,4.18
2022-08-12T23:36:03.335Z,3.78
2022-08-12T23:38:34.695Z,3.80
2022-08-12T23:41:05.814Z,4.43
2022-08-12T23:43:39.222Z,4.07
2022-08-12T23:46:10.522Z,4.50
2022-08-12T23:48:40.896Z,3.80
2022-08-12T23:51:22.203Z,4.13
2022-08-12T23:53:56.447Z,4.35
2022-08-12T23:56:33.679Z,3.78
2022-08-12T23:59:02.390Z,4.35
